Pagrindinis puslapis
METAR-TAF:

METAR-TAF

Oro uostai :

Namsos, Norvegija

platuma: 64-28N, ilguma: 011-35E, Aukštis: 0 m

Dabartinis oras

Ataskaita buvo paskelbta 29 minutes, ne 20:20 UTC
Vėjas 4 kt iš Pietų, svyruoja nuo Rytų/Pietryčių ir Vakarų/Pietvakarių
Temperatūra 18°C
Drėgmė 64%
Slėgis 1007 hPa
Matomumas 10 km arba daugiau
Išsisklaidę debesys ne aukštis 5000 ft
Išsisklaidę debesys ne aukštis 10000 ft

METAR: ENNM 162020Z 17004KT 110V240 9999 SCT050 SCT100 18/11 Q1007

Laikas: 22:49 (20:49 UTC)

Prognozė

Ataskaita buvo paskelbta 3 valandos ir 49 minutes, ne 17:00 UTC
Prognozė galioja nuo 16 metu 18 UTC su 16 metu 21 UTC
Vėjas 9 kt iš Rytų
Matomumas 10 km arba daugiau
Su prošvaistėmis ne aukštis 6000 ft
Laikinai
nuo 16 metu 18 UTC su 16 metu 21 UTC
Su prošvaistėmis ne aukštis 2500 ft, Liūtiniai kamuoliniai debesys.
lietus
Tikimybė 40% :
Laikinai
nuo 16 metu 18 UTC su 16 metu 21 UTC
perkūnija,

TAF: ENNM 161700Z 1618/1621 10009KT 9999 BKN060 TEMPO 1618/1621 SHRA BKN025CB PROB40 TEMPO 1618/1621 TS

Orai ataskaitas ir orų prognozės (METAR, TAF).

turimą stotys yra geltonos ir raudonos taškus žemėlapyje.

Perkelti pele per norėdami pamatyti stoties vardą.

Tada spustelėkite, norėdami matyti oro stebėjimo ir prognozės.

Norėdami pakeisti žemėlapį: spustelėkite ant žalios mygtukų su juodo kryžiaus žemyn,; žalią mygtuką su brūkšneliu, jei norite nutolinti; arba žalių rodyklių gretimoms žemėlapius.


METAR-TAF: